sensor_id;sensor_type;location;lat;lon;timestamp;pressure;altitude;pressure_sealevel;temperature;humidity
68226;BME280;55045;49.410;11.030;2022-09-02T00:02:58;98271.31;;;12.72;100.00
68226;BME280;55045;49.410;11.030;2022-09-02T00:06:02;98251.69;;;12.82;100.00
68226;BME280;55045;49.410;11.030;2022-09-02T00:09:08;98260.72;;;12.44;100.00
68226;BME280;55045;49.410;11.030;2022-09-02T00:12:12;98266.25;;;12.37;100.00
68226;BME280;55045;49.410;11.030;2022-09-02T00:15:15;98272.59;;;12.16;100.00
68226;BME280;55045;49.410;11.030;2022-09-02T00:18:19;98267.28;;;12.51;100.00
68226;BME280;55045;49.410;11.030;2022-09-02T00:21:22;98272.81;;;13.08;100.00
68226;BME280;55045;49.410;11.030;2022-09-02T00:24:28;98261.84;;;12.06;100.00
68226;BME280;55045;49.410;11.030;2022-09-02T00:27:31;98273.53;;;11.98;100.00
68226;BME280;55045;49.410;11.030;2022-09-02T00:30:34;98265.59;;;11.83;100.00
68226;BME280;55045;49.410;11.030;2022-09-02T00:33:38;98262.31;;;11.97;100.00
68226;BME280;55045;49.410;11.030;2022-09-02T00:36:42;98265.72;;;11.63;100.00
68226;BME280;55045;49.410;11.030;2022-09-02T00:39:46;98260.38;;;11.49;100.00
68226;BME280;55045;49.410;11.030;2022-09-02T00:42:50;98262.34;;;11.44;100.00
68226;BME280;55045;49.410;11.030;2022-09-02T00:45:54;98268.66;;;11.57;100.00
68226;BME280;55045;49.410;11.030;2022-09-02T00:49:03;98260.53;;;11.29;100.00
68226;BME280;55045;49.410;11.030;2022-09-02T00:52:10;98235.16;;;11.51;100.00
68226;BME280;55045;49.410;11.030;2022-09-02T00:55:20;98252.97;;;11.41;100.00
68226;BME280;55045;49.410;11.030;2022-09-02T00:58:26;98250.75;;;11.34;100.00
68226;BME280;55045;49.410;11.030;2022-09-02T01:01:32;98243.28;;;11.28;100.00
68226;BME280;55045;49.410;11.030;2022-09-02T01:04:36;98242.50;;;11.25;100.00
68226;BME280;55045;49.410;11.030;2022-09-02T01:07:40;98257.28;;;11.06;100.00
68226;BME280;55045;49.410;11.030;2022-09-02T01:10:46;98256.97;;;10.95;100.00
68226;BME280;55045;49.410;11.030;2022-09-02T01:13:51;98256.81;;;10.79;100.00
68226;BME280;55045;49.410;11.030;2022-09-02T01:16:57;98251.88;;;10.75;100.00
68226;BME280;55045;49.410;11.030;2022-09-02T01:20:06;98244.28;;;10.51;100.00
68226;BME280;55045;49.410;11.030;2022-09-02T01:23:15;98257.41;;;10.67;100.00
68226;BME280;55045;49.410;11.030;2022-09-02T01:26:19;98249.56;;;10.68;100.00
68226;BME280;55045;49.410;11.030;2022-09-02T01:29:24;98234.34;;;10.61;100.00
68226;BME280;55045;49.410;11.030;2022-09-02T01:32:29;98252.06;;;10.51;100.00
68226;BME280;55045;49.410;11.030;2022-09-02T01:35:34;98251.03;;;10.55;100.00
68226;BME280;55045;49.410;11.030;2022-09-02T01:38:38;98227.06;;;10.50;100.00
68226;BME280;55045;49.410;11.030;2022-09-02T01:41:43;98244.78;;;10.59;100.00
68226;BME280;55045;49.410;11.030;2022-09-02T01:44:46;98236.25;;;10.38;100.00
68226;BME280;55045;49.410;11.030;2022-09-02T01:47:50;98225.88;;;10.38;100.00
68226;BME280;55045;49.410;11.030;2022-09-02T01:50:55;98249.00;;;10.24;100.00
68226;BME280;55045;49.410;11.030;2022-09-02T01:54:01;98254.88;;;10.07;100.00
68226;BME280;55045;49.410;11.030;2022-09-02T01:57:04;98255.66;;;10.49;100.00
68226;BME280;55045;49.410;11.030;2022-09-02T02:00:10;98253.28;;;10.44;100.00
68226;BME280;55045;49.410;11.030;2022-09-02T02:03:14;98227.28;;;10.06;100.00
68226;BME280;55045;49.410;11.030;2022-09-02T02:06:17;98243.94;;;10.40;100.00
68226;BME280;55045;49.410;11.030;2022-09-02T02:09:23;98245.94;;;10.15;100.00
68226;BME280;55045;49.410;11.030;2022-09-02T02:12:27;98246.19;;;10.08;100.00
68226;BME280;55045;49.410;11.030;2022-09-02T02:15:31;98236.97;;;10.03;100.00
68226;BME280;55045;49.410;11.030;2022-09-02T02:18:33;98242.13;;;10.23;100.00
68226;BME280;55045;49.410;11.030;2022-09-02T02:21:38;98233.16;;;9.91;100.00
68226;BME280;55045;49.410;11.030;2022-09-02T02:24:43;98241.03;;;9.88;100.00
68226;BME280;55045;49.410;11.030;2022-09-02T02:27:46;98237.47;;;9.91;100.00
68226;BME280;55045;49.410;11.030;2022-09-02T02:30:50;98233.47;;;9.84;100.00
68226;BME280;55045;49.410;11.030;2022-09-02T02:33:53;98233.41;;;9.85;100.00
68226;BME280;55045;49.410;11.030;2022-09-02T02:36:57;98240.81;;;10.33;100.00
68226;BME280;55045;49.410;11.030;2022-09-02T02:40:03;98241.94;;;9.87;100.00
68226;BME280;55045;49.410;11.030;2022-09-02T02:43:07;98246.53;;;9.80;100.00
68226;BME280;55045;49.410;11.030;2022-09-02T02:46:11;98245.06;;;9.95;100.00
68226;BME280;55045;49.410;11.030;2022-09-02T02:49:15;98237.69;;;9.66;100.00
68226;BME280;55045;49.410;11.030;2022-09-02T02:52:18;98241.59;;;9.56;100.00
68226;BME280;55045;49.410;11.030;2022-09-02T02:55:24;98242.19;;;9.62;100.00
68226;BME280;55045;49.410;11.030;2022-09-02T02:58:28;98250.13;;;9.58;100.00
68226;BME280;55045;49.410;11.030;2022-09-02T03:01:32;98242.50;;;9.55;100.00
68226;BME280;55045;49.410;11.030;2022-09-02T03:04:37;98243.56;;;9.29;100.00
68226;BME280;55045;49.410;11.030;2022-09-02T03:07:42;98242.25;;;9.40;100.00
68226;BME280;55045;49.410;11.030;2022-09-02T03:10:48;98225.88;;;9.18;100.00
68226;BME280;55045;49.410;11.030;2022-09-02T03:13:57;98239.63;;;9.20;100.00
68226;BME280;55045;49.410;11.030;2022-09-02T03:17:02;98240.06;;;9.30;100.00
68226;BME280;55045;49.410;11.030;2022-09-02T03:20:07;98233.72;;;8.94;100.00
68226;BME280;55045;49.410;11.030;2022-09-02T03:23:14;98227.22;;;9.06;100.00
68226;BME280;55045;49.410;11.030;2022-09-02T03:26:23;98227.78;;;8.92;100.00
68226;BME280;55045;49.410;11.030;2022-09-02T03:29:27;98240.34;;;9.02;100.00
68226;BME280;55045;49.410;11.030;2022-09-02T03:34:23;98235.56;;;8.92;100.00
68226;BME280;55045;49.410;11.030;2022-09-02T03:37:30;98229.06;;;9.24;100.00
68226;BME280;55045;49.410;11.030;2022-09-02T03:40:34;98227.84;;;8.91;100.00
68226;BME280;55045;49.410;11.030;2022-09-02T03:43:37;98232.88;;;9.16;100.00
68226;BME280;55045;49.410;11.030;2022-09-02T03:46:41;98220.63;;;8.77;100.00
68226;BME280;55045;49.410;11.030;2022-09-02T03:49:46;98224.00;;;8.79;100.00
68226;BME280;55045;49.410;11.030;2022-09-02T03:52:50;98229.75;;;8.86;100.00
68226;BME280;55045;49.410;11.030;2022-09-02T03:55:54;98227.72;;;8.72;100.00
68226;BME280;55045;49.410;11.030;2022-09-02T03:59:00;98232.28;;;8.87;100.00
68226;BME280;55045;49.410;11.030;2022-09-02T04:02:05;98202.81;;;8.91;100.00
68226;BME280;55045;49.410;11.030;2022-09-02T04:05:11;98217.38;;;8.72;100.00
68226;BME280;55045;49.410;11.030;2022-09-02T04:08:18;98196.03;;;8.67;100.00
68226;BME280;55045;49.410;11.030;2022-09-02T04:11:22;98198.66;;;8.44;100.00
68226;BME280;55045;49.410;11.030;2022-09-02T04:14:27;98225.97;;;9.77;100.00
68226;BME280;55045;49.410;11.030;2022-09-02T04:22:11;98224.81;;;8.58;100.00
68226;BME280;55045;49.410;11.030;2022-09-02T04:25:14;98232.34;;;8.64;100.00
68226;BME280;55045;49.410;11.030;2022-09-02T04:28:20;98223.38;;;8.51;100.00
68226;BME280;55045;49.410;11.030;2022-09-02T04:31:24;98242.03;;;8.59;100.00
68226;BME280;55045;49.410;11.030;2022-09-02T04:34:31;98230.66;;;8.63;100.00
68226;BME280;55045;49.410;11.030;2022-09-02T04:37:37;98235.91;;;8.61;100.00
68226;BME280;55045;49.410;11.030;2022-09-02T04:40:41;98242.38;;;8.50;100.00
68226;BME280;55045;49.410;11.030;2022-09-02T04:43:45;98236.88;;;8.59;100.00
68226;BME280;55045;49.410;11.030;2022-09-02T04:46:49;98240.22;;;8.61;100.00
68226;BME280;55045;49.410;11.030;2022-09-02T04:49:56;98240.59;;;8.52;100.00
68226;BME280;55045;49.410;11.030;2022-09-02T04:53:03;98241.06;;;8.61;100.00
68226;BME280;55045;49.410;11.030;2022-09-02T04:56:09;98229.91;;;8.61;100.00
68226;BME280;55045;49.410;11.030;2022-09-02T04:59:13;98239.53;;;8.79;100.00
68226;BME280;55045;49.410;11.030;2022-09-02T05:02:24;98239.28;;;8.85;100.00
68226;BME280;55045;49.410;11.030;2022-09-02T05:05:29;98236.63;;;8.87;100.00
68226;BME280;55045;49.410;11.030;2022-09-02T05:08:35;98236.13;;;8.77;100.00
68226;BME280;55045;49.410;11.030;2022-09-02T05:11:40;98245.13;;;8.90;100.00
68226;BME280;55045;49.410;11.030;2022-09-02T05:14:43;98237.78;;;8.80;100.00
68226;BME280;55045;49.410;11.030;2022-09-02T05:17:52;98243.50;;;9.10;100.00
68226;BME280;55045;49.410;11.030;2022-09-02T05:20:55;98246.25;;;9.05;100.00
68226;BME280;55045;49.410;11.030;2022-09-02T05:24:00;98236.66;;;9.07;100.00
68226;BME280;55045;49.410;11.030;2022-09-02T05:27:03;98241.41;;;9.18;100.00
68226;BME280;55045;49.410;11.030;2022-09-02T05:30:10;98259.91;;;9.51;100.00
68226;BME280;55045;49.410;11.030;2022-09-02T05:33:14;98247.84;;;9.50;100.00
68226;BME280;55045;49.410;11.030;2022-09-02T05:36:22;98232.47;;;10.06;100.00
68226;BME280;55045;49.410;11.030;2022-09-02T05:39:30;98226.06;;;10.72;100.00
68226;BME280;55045;49.410;11.030;2022-09-02T05:42:34;98207.72;;;10.57;100.00
68226;BME280;55045;49.410;11.030;2022-09-02T05:45:38;98210.44;;;10.73;100.00
68226;BME280;55045;49.410;11.030;2022-09-02T05:48:43;98205.84;;;11.14;100.00
68226;BME280;55045;49.410;11.030;2022-09-02T05:52:04;98200.03;;;11.44;100.00
68226;BME280;55045;49.410;11.030;2022-09-02T05:55:19;98205.84;;;11.66;100.00
68226;BME280;55045;49.410;11.030;2022-09-02T05:58:23;98203.84;;;11.54;100.00
68226;BME280;55045;49.410;11.030;2022-09-02T06:01:28;98201.31;;;12.20;100.00
68226;BME280;55045;49.410;11.030;2022-09-02T06:04:37;98201.31;;;11.70;100.00
68226;BME280;55045;49.410;11.030;2022-09-02T06:07:54;98196.69;;;12.25;100.00
68226;BME280;55045;49.410;11.030;2022-09-02T06:11:08;98195.84;;;12.25;100.00
68226;BME280;55045;49.410;11.030;2022-09-02T06:14:19;98153.94;;;12.47;100.00
68226;BME280;55045;49.410;11.030;2022-09-02T06:17:51;98121.81;;;12.78;100.00
68226;BME280;55045;49.410;11.030;2022-09-02T06:20:54;98203.63;;;13.19;100.00
68226;BME280;55045;49.410;11.030;2022-09-02T06:24:03;98174.31;;;13.60;100.00
68226;BME280;55045;49.410;11.030;2022-09-02T06:27:08;98187.47;;;14.01;100.00
68226;BME280;55045;49.410;11.030;2022-09-02T06:30:15;98179.25;;;14.07;100.00
68226;BME280;55045;49.410;11.030;2022-09-02T06:33:18;98173.72;;;14.40;100.00
68226;BME280;55045;49.410;11.030;2022-09-02T06:36:24;98180.38;;;14.32;100.00
68226;BME280;55045;49.410;11.030;2022-09-02T06:39:30;98179.81;;;14.27;100.00
68226;BME280;55045;49.410;11.030;2022-09-02T06:42:36;98184.56;;;14.76;100.00
68226;BME280;55045;49.410;11.030;2022-09-02T06:46:02;98180.06;;;14.92;100.00
68226;BME280;55045;49.410;11.030;2022-09-02T06:49:09;98190.91;;;14.98;100.00
68226;BME280;55045;49.410;11.030;2022-09-02T06:52:14;98187.38;;;15.52;100.00
68226;BME280;55045;49.410;11.030;2022-09-02T06:55:18;98188.31;;;15.38;100.00
68226;BME280;55045;49.410;11.030;2022-09-02T06:58:23;98188.50;;;15.35;100.00
68226;BME280;55045;49.410;11.030;2022-09-02T07:01:29;98188.47;;;15.62;100.00
68226;BME280;55045;49.410;11.030;2022-09-02T07:04:33;98178.31;;;15.70;100.00
68226;BME280;55045;49.410;11.030;2022-09-02T07:07:58;98178.31;;;15.83;100.00
68226;BME280;55045;49.410;11.030;2022-09-02T07:11:04;98175.25;;;16.27;100.00
68226;BME280;55045;49.410;11.030;2022-09-02T07:14:09;98178.50;;;16.55;100.00
68226;BME280;55045;49.410;11.030;2022-09-02T07:17:14;98180.22;;;16.56;100.00
68226;BME280;55045;49.410;11.030;2022-09-02T07:20:23;98182.38;;;16.98;100.00
68226;BME280;55045;49.410;11.030;2022-09-02T07:23:31;98183.28;;;17.21;100.00
68226;BME280;55045;49.410;11.030;2022-09-02T07:26:43;98186.66;;;16.99;100.00
68226;BME280;55045;49.410;11.030;2022-09-02T07:29:49;98180.28;;;17.15;100.00
68226;BME280;55045;49.410;11.030;2022-09-02T07:32:55;98183.91;;;17.36;100.00
68226;BME280;55045;49.410;11.030;2022-09-02T07:36:00;98185.22;;;17.31;100.00
68226;BME280;55045;49.410;11.030;2022-09-02T07:39:13;98178.72;;;17.12;100.00
68226;BME280;55045;49.410;11.030;2022-09-02T07:42:17;98167.78;;;17.65;100.00
68226;BME280;55045;49.410;11.030;2022-09-02T07:45:23;98171.53;;;18.18;100.00
68226;BME280;55045;49.410;11.030;2022-09-02T07:48:28;98143.88;;;17.92;100.00
68226;BME280;55045;49.410;11.030;2022-09-02T07:51:32;98170.44;;;18.65;100.00
68226;BME280;55045;49.410;11.030;2022-09-02T07:54:36;98156.63;;;18.41;100.00
68226;BME280;55045;49.410;11.030;2022-09-02T07:57:39;98162.50;;;18.00;100.00
68226;BME280;55045;49.410;11.030;2022-09-02T08:00:45;98161.13;;;18.73;100.00
68226;BME280;55045;49.410;11.030;2022-09-02T08:03:50;98158.09;;;17.89;100.00
68226;BME280;55045;49.410;11.030;2022-09-02T08:06:57;98164.44;;;18.63;100.00
68226;BME280;55045;49.410;11.030;2022-09-02T08:10:00;98160.81;;;18.21;100.00
68226;BME280;55045;49.410;11.030;2022-09-02T08:13:04;98161.16;;;18.50;100.00
68226;BME280;55045;49.410;11.030;2022-09-02T08:16:09;98155.34;;;18.79;100.00
68226;BME280;55045;49.410;11.030;2022-09-02T08:19:13;98165.94;;;18.88;95.68
68226;BME280;55045;49.410;11.030;2022-09-02T08:22:16;98176.16;;;19.14;92.92
68226;BME280;55045;49.410;11.030;2022-09-02T08:25:20;98168.75;;;19.08;91.82
68226;BME280;55045;49.410;11.030;2022-09-02T08:28:23;98171.22;;;18.88;92.04
68226;BME280;55045;49.410;11.030;2022-09-02T08:31:28;98157.69;;;19.46;91.99
68226;BME280;55045;49.410;11.030;2022-09-02T08:34:33;98164.28;;;19.19;86.05
68226;BME280;55045;49.410;11.030;2022-09-02T08:37:36;98163.69;;;19.16;85.57
68226;BME280;55045;49.410;11.030;2022-09-02T08:40:41;98155.06;;;19.46;83.29
68226;BME280;55045;49.410;11.030;2022-09-02T08:43:46;98151.06;;;19.31;81.39
68226;BME280;55045;49.410;11.030;2022-09-02T08:46:55;98153.97;;;19.48;82.48
68226;BME280;55045;49.410;11.030;2022-09-02T08:50:04;98135.47;;;19.80;80.17
68226;BME280;55045;49.410;11.030;2022-09-02T08:53:18;98145.72;;;20.04;81.66
68226;BME280;55045;49.410;11.030;2022-09-02T08:56:25;98151.31;;;19.27;78.68
68226;BME280;55045;49.410;11.030;2022-09-02T08:59:30;98143.25;;;20.22;76.58
68226;BME280;55045;49.410;11.030;2022-09-02T09:02:42;98134.94;;;20.17;72.53
68226;BME280;55045;49.410;11.030;2022-09-02T09:06:02;98136.78;;;19.44;71.58
68226;BME280;55045;49.410;11.030;2022-09-02T09:09:17;98139.44;;;19.65;77.18
68226;BME280;55045;49.410;11.030;2022-09-02T09:12:28;98133.72;;;19.60;71.08
68226;BME280;55045;49.410;11.030;2022-09-02T09:15:41;98138.50;;;20.06;70.18
68226;BME280;55045;49.410;11.030;2022-09-02T09:18:53;98130.41;;;19.89;68.74
68226;BME280;55045;49.410;11.030;2022-09-02T09:21:59;98125.81;;;20.31;65.94
68226;BME280;55045;49.410;11.030;2022-09-02T09:25:06;98124.84;;;19.92;63.39
68226;BME280;55045;49.410;11.030;2022-09-02T09:28:12;98123.75;;;19.84;62.42
68226;BME280;55045;49.410;11.030;2022-09-02T09:35:05;98119.78;;;19.69;59.87
68226;BME280;55045;49.410;11.030;2022-09-02T09:38:11;98111.44;;;20.35;57.34
68226;BME280;55045;49.410;11.030;2022-09-02T09:41:17;98117.38;;;20.27;57.83
68226;BME280;55045;49.410;11.030;2022-09-02T09:44:40;98123.44;;;20.68;52.26
68226;BME280;55045;49.410;11.030;2022-09-02T09:48:06;98115.00;;;19.84;51.89
68226;BME280;55045;49.410;11.030;2022-09-02T09:51:14;98101.09;;;20.03;53.50
68226;BME280;55045;49.410;11.030;2022-09-02T09:54:19;98103.91;;;19.80;60.30
68226;BME280;55045;49.410;11.030;2022-09-02T09:57:23;98092.78;;;20.48;54.11
68226;BME280;55045;49.410;11.030;2022-09-02T10:00:38;98100.31;;;20.31;45.50
68226;BME280;55045;49.410;11.030;2022-09-02T10:03:54;98101.69;;;20.16;47.61
68226;BME280;55045;49.410;11.030;2022-09-02T10:06:59;98096.69;;;20.13;49.87
68226;BME280;55045;49.410;11.030;2022-09-02T10:10:16;98096.91;;;20.00;50.18
68226;BME280;55045;49.410;11.030;2022-09-02T10:13:23;98086.13;;;19.63;51.52
68226;BME280;55045;49.410;11.030;2022-09-02T10:16:41;98090.50;;;19.83;56.70
68226;BME280;55045;49.410;11.030;2022-09-02T10:19:51;98078.16;;;19.84;57.71
68226;BME280;55045;49.410;11.030;2022-09-02T10:23:07;98077.13;;;20.56;54.05
68226;BME280;55045;49.410;11.030;2022-09-02T10:26:23;98073.91;;;20.02;52.60
68226;BME280;55045;49.410;11.030;2022-09-02T10:29:38;98063.63;;;19.90;59.17
68226;BME280;55045;49.410;11.030;2022-09-02T10:32:58;98065.38;;;19.49;63.56
68226;BME280;55045;49.410;11.030;2022-09-02T10:36:12;98064.03;;;19.54;63.50
68226;BME280;55045;49.410;11.030;2022-09-02T10:39:33;98066.91;;;19.51;63.91
68226;BME280;55045;49.410;11.030;2022-09-02T10:42:50;98059.66;;;20.05;55.25
68226;BME280;55045;49.410;11.030;2022-09-02T10:46:00;98049.22;;;19.84;52.60
68226;BME280;55045;49.410;11.030;2022-09-02T10:49:09;98050.47;;;21.07;51.17
68226;BME280;55045;49.410;11.030;2022-09-02T10:52:35;98066.31;;;20.78;53.11
68226;BME280;55045;49.410;11.030;2022-09-02T10:55:50;98053.88;;;20.30;52.76
68226;BME280;55045;49.410;11.030;2022-09-02T10:58:58;98046.53;;;20.14;60.85
68226;BME280;55045;49.410;11.030;2022-09-02T11:02:11;98045.50;;;20.75;56.20
68226;BME280;55045;49.410;11.030;2022-09-02T11:05:18;98048.63;;;20.40;53.81
68226;BME280;55045;49.410;11.030;2022-09-02T11:08:31;98053.66;;;20.43;53.06
68226;BME280;55045;49.410;11.030;2022-09-02T11:11:41;98014.25;;;20.41;53.02
68226;BME280;55045;49.410;11.030;2022-09-02T11:14:58;98008.75;;;20.64;52.49
68226;BME280;55045;49.410;11.030;2022-09-02T11:18:11;98033.53;;;21.10;52.10
68226;BME280;55045;49.410;11.030;2022-09-02T11:21:26;97980.19;;;20.50;49.44
68226;BME280;55045;49.410;11.030;2022-09-02T11:24:36;98031.06;;;20.60;51.63
68226;BME280;55045;49.410;11.030;2022-09-02T11:27:53;98026.88;;;20.28;51.48
68226;BME280;55045;49.410;11.030;2022-09-02T11:31:05;98004.56;;;20.81;48.64
68226;BME280;55045;49.410;11.030;2022-09-02T11:34:18;98011.38;;;20.64;54.15
68226;BME280;55045;49.410;11.030;2022-09-02T11:37:28;98012.75;;;20.87;52.70
68226;BME280;55045;49.410;11.030;2022-09-02T11:40:38;98012.16;;;20.93;52.74
68226;BME280;55045;49.410;11.030;2022-09-02T11:43:52;98004.28;;;21.77;54.57
68226;BME280;55045;49.410;11.030;2022-09-02T11:47:37;98004.97;;;20.86;50.84
68226;BME280;55045;49.410;11.030;2022-09-02T11:50:54;98003.50;;;21.20;51.48
68226;BME280;55045;49.410;11.030;2022-09-02T11:54:03;97976.91;;;20.94;48.17
68226;BME280;55045;49.410;11.030;2022-09-02T11:57:12;97996.44;;;21.21;48.34
68226;BME280;55045;49.410;11.030;2022-09-02T12:00:28;97988.59;;;21.48;58.85
68226;BME280;55045;49.410;11.030;2022-09-02T12:03:34;97996.44;;;21.21;50.81
68226;BME280;55045;49.410;11.030;2022-09-02T12:07:24;97996.53;;;21.94;50.86
68226;BME280;55045;49.410;11.030;2022-09-02T12:10:57;97990.25;;;20.93;50.68
68226;BME280;55045;49.410;11.030;2022-09-02T12:14:02;97983.63;;;20.50;52.02
68226;BME280;55045;49.410;11.030;2022-09-02T12:17:34;97954.34;;;20.73;54.21
68226;BME280;55045;49.410;11.030;2022-09-02T12:21:08;97983.59;;;20.89;50.54
68226;BME280;55045;49.410;11.030;2022-09-02T12:24:20;97980.03;;;21.37;50.43
68226;BME280;55045;49.410;11.030;2022-09-02T12:27:29;97981.16;;;21.15;55.38
68226;BME280;55045;49.410;11.030;2022-09-02T12:31:10;97968.06;;;20.95;50.18
68226;BME280;55045;49.410;11.030;2022-09-02T12:34:51;97966.44;;;20.36;50.55
68226;BME280;55045;49.410;11.030;2022-09-02T12:37:55;97944.25;;;20.68;52.20
68226;BME280;55045;49.410;11.030;2022-09-02T12:41:13;97941.34;;;21.18;49.17
68226;BME280;55045;49.410;11.030;2022-09-02T12:44:25;97966.16;;;21.62;48.44
68226;BME280;55045;49.410;11.030;2022-09-02T12:47:39;97962.88;;;21.04;51.02
68226;BME280;55045;49.410;11.030;2022-09-02T12:50:56;97948.97;;;20.74;50.54
68226;BME280;55045;49.410;11.030;2022-09-02T12:54:01;97947.28;;;20.73;51.89
68226;BME280;55045;49.410;11.030;2022-09-02T12:57:08;97949.63;;;21.33;51.72
68226;BME280;55045;49.410;11.030;2022-09-02T13:00:15;97944.25;;;21.15;49.34
68226;BME280;55045;49.410;11.030;2022-09-02T13:04:01;97950.56;;;20.94;49.66
68226;BME280;55045;49.410;11.030;2022-09-02T13:07:40;97946.97;;;20.95;51.62
68226;BME280;55045;49.410;11.030;2022-09-02T13:11:23;97943.34;;;21.43;47.51
68226;BME280;55045;49.410;11.030;2022-09-02T13:14:52;97941.28;;;21.37;50.27
68226;BME280;55045;49.410;11.030;2022-09-02T13:22:01;97936.97;;;20.89;52.18
68226;BME280;55045;49.410;11.030;2022-09-02T13:25:35;97936.91;;;21.18;48.01
68226;BME280;55045;49.410;11.030;2022-09-02T13:29:03;97922.06;;;21.45;50.38
68226;BME280;55045;49.410;11.030;2022-09-02T13:32:14;97919.78;;;21.32;49.42
68226;BME280;55045;49.410;11.030;2022-09-02T13:35:25;97918.06;;;21.68;50.86
68226;BME280;55045;49.410;11.030;2022-09-02T13:38:29;97906.94;;;21.10;49.12
68226;BME280;55045;49.410;11.030;2022-09-02T13:41:35;97916.16;;;20.96;51.14
68226;BME280;55045;49.410;11.030;2022-09-02T13:44:38;97903.38;;;21.38;50.27
68226;BME280;55045;49.410;11.030;2022-09-02T13:47:43;97890.56;;;21.16;46.54
68226;BME280;55045;49.410;11.030;2022-09-02T13:50:49;97885.13;;;21.27;46.93
68226;BME280;55045;49.410;11.030;2022-09-02T13:53:57;97876.19;;;21.55;47.58
68226;BME280;55045;49.410;11.030;2022-09-02T13:57:24;97896.38;;;21.92;49.66
68226;BME280;55045;49.410;11.030;2022-09-02T14:00:31;97893.53;;;21.76;48.06
68226;BME280;55045;49.410;11.030;2022-09-02T14:03:35;97894.97;;;21.52;51.42
68226;BME280;55045;49.410;11.030;2022-09-02T14:06:42;97835.22;;;21.06;47.16
68226;BME280;55045;49.410;11.030;2022-09-02T14:09:46;97877.34;;;21.71;46.22
68226;BME280;55045;49.410;11.030;2022-09-02T14:12:52;97882.44;;;21.37;46.14
68226;BME280;55045;49.410;11.030;2022-09-02T14:16:25;97877.16;;;21.37;45.52
68226;BME280;55045;49.410;11.030;2022-09-02T14:19:28;97876.63;;;21.51;48.80
68226;BME280;55045;49.410;11.030;2022-09-02T14:22:32;97874.31;;;21.66;45.25
68226;BME280;55045;49.410;11.030;2022-09-02T14:25:37;97845.56;;;21.27;47.29
68226;BME280;55045;49.410;11.030;2022-09-02T14:28:49;97863.41;;;21.06;50.77
68226;BME280;55045;49.410;11.030;2022-09-02T14:32:10;97855.16;;;21.46;48.34
68226;BME280;55045;49.410;11.030;2022-09-02T14:35:20;97855.13;;;21.28;48.54
68226;BME280;55045;49.410;11.030;2022-09-02T14:38:26;97856.50;;;21.50;47.05
68226;BME280;55045;49.410;11.030;2022-09-02T14:41:32;97862.31;;;21.36;47.17
68226;BME280;55045;49.410;11.030;2022-09-02T14:44:38;97854.31;;;21.45;50.07
68226;BME280;55045;49.410;11.030;2022-09-02T14:47:42;97858.00;;;21.25;47.26
68226;BME280;55045;49.410;11.030;2022-09-02T14:50:47;97853.34;;;21.19;50.50
68226;BME280;55045;49.410;11.030;2022-09-02T14:53:51;97855.59;;;21.04;49.13
68226;BME280;55045;49.410;11.030;2022-09-02T14:56:54;97843.63;;;21.19;50.17
68226;BME280;55045;49.410;11.030;2022-09-02T15:00:00;97839.13;;;21.57;47.77
68226;BME280;55045;49.410;11.030;2022-09-02T15:03:05;97846.28;;;21.82;49.41
68226;BME280;55045;49.410;11.030;2022-09-02T15:06:08;97840.16;;;21.46;49.17
68226;BME280;55045;49.410;11.030;2022-09-02T15:09:16;97842.59;;;21.58;48.68
68226;BME280;55045;49.410;11.030;2022-09-02T15:12:21;97836.34;;;21.31;46.97
68226;BME280;55045;49.410;11.030;2022-09-02T15:15:27;97805.69;;;21.30;49.86
68226;BME280;55045;49.410;11.030;2022-09-02T15:18:31;97835.84;;;21.18;47.31
68226;BME280;55045;49.410;11.030;2022-09-02T15:21:34;97838.69;;;21.07;51.84
68226;BME280;55045;49.410;11.030;2022-09-02T15:24:38;97813.31;;;21.23;48.58
68226;BME280;55045;49.410;11.030;2022-09-02T15:27:42;97820.53;;;21.31;49.88
68226;BME280;55045;49.410;11.030;2022-09-02T15:34:21;97818.66;;;21.14;50.47
68226;BME280;55045;49.410;11.030;2022-09-02T15:37:25;97818.03;;;21.30;48.53
68226;BME280;55045;49.410;11.030;2022-09-02T15:40:29;97756.75;;;20.90;49.89
68226;BME280;55045;49.410;11.030;2022-09-02T15:43:34;97782.59;;;21.05;49.31
68226;BME280;55045;49.410;11.030;2022-09-02T15:46:37;97795.56;;;20.98;53.12
68226;BME280;55045;49.410;11.030;2022-09-02T15:49:41;97816.66;;;21.25;49.03
68226;BME280;55045;49.410;11.030;2022-09-02T15:52:45;97818.75;;;21.22;47.41
68226;BME280;55045;49.410;11.030;2022-09-02T15:55:48;97802.66;;;20.97;48.10
68226;BME280;55045;49.410;11.030;2022-09-02T15:58:55;97802.34;;;21.00;48.16
68226;BME280;55045;49.410;11.030;2022-09-02T16:02:02;97803.59;;;21.06;52.71
68226;BME280;55045;49.410;11.030;2022-09-02T16:05:14;97794.63;;;20.89;50.45
68226;BME280;55045;49.410;11.030;2022-09-02T16:08:37;97798.88;;;21.00;48.56
68226;BME280;55045;49.410;11.030;2022-09-02T16:11:43;97795.00;;;20.94;49.42
68226;BME280;55045;49.410;11.030;2022-09-02T16:14:47;97796.75;;;20.86;47.90
68226;BME280;55045;49.410;11.030;2022-09-02T16:17:52;97755.84;;;20.54;50.27
68226;BME280;55045;49.410;11.030;2022-09-02T16:20:56;97777.81;;;20.63;52.15
68226;BME280;55045;49.410;11.030;2022-09-02T16:24:00;97782.22;;;20.72;50.16
68226;BME280;55045;49.410;11.030;2022-09-02T16:27:04;97775.31;;;20.71;49.13
68226;BME280;55045;49.410;11.030;2022-09-02T16:30:07;97777.25;;;20.69;51.21
68226;BME280;55045;49.410;11.030;2022-09-02T16:33:11;97783.06;;;20.73;51.74
68226;BME280;55045;49.410;11.030;2022-09-02T16:36:16;97779.88;;;20.69;50.68
68226;BME280;55045;49.410;11.030;2022-09-02T16:39:19;97716.91;;;20.38;50.71
68226;BME280;55045;49.410;11.030;2022-09-02T16:42:23;97720.50;;;20.37;50.06